Soledade, Brazil
Current Conditions -  °F | °C
As of 12:10 AM on Monday 24 Nov 2014 (Local Time) from SBSM Reporting Station
Clear Clear  
Wind Chill: 61°   Ceiling: Unl
Heat Index: 61°   Visibility: 6mi
Dew Point: 57°   Wind: 3mph
Humidity: 88%   Direction: 80°E
Pressure: 29.88"   Gusts: NA
Location:  28.82°S, 52.51°W
Report Text: SBSM 240210Z 08003KT CAVOK 16/14 Q1012
Loading
Personal Weather Stations






























Interactive Weather Map New forecast layout! Learn more

10-Day Weather Forecast

Advertisements
Track Severe Weather on mobile